Погода Маулена неделю

Мауле, Чили

23 - 29 февраля
  • 23февраля
    Сегодня
    +15°
    +29°
    Ясно и безоблачно
    ВремяПогодаТемператураВлажностьДавлениеВетер, м/сВероятность осадков
    00:00Ясно и безоблачно+19°C59 %754 мм1.5 м/с4 %
    03:00Ясно и безоблачно+17°C64 %753 мм3.0 м/с5 %
    06:00Ясно и безоблачно+15°C58 %754 мм3.5 м/с5 %
    09:00Ясно и безоблачно+15°C55 %754 мм3.7 м/с5 %
    12:00Ясно и безоблачно+21°C33 %754 мм3.8 м/с5 %
    15:00Ясно и безоблачно+26°C26 %752 мм1.4 м/с4 %
    18:00Ясно и безоблачно+29°C22 %751 мм0.3 м/с4 %
    21:00Ясно и безоблачно+26°C31 %752 мм1.6 м/с5 %
  • 24февраля
    Суббота
    +16°
    +32°
    Ясно и безоблачно
    ВремяПогодаТемператураВлажностьДавлениеВетер, м/сВероятность осадков
    00:00Ясно и безоблачно+22°C32 %752 мм4.0 м/с5 %
    03:00Ясно и безоблачно+19°C41 %752 мм3.4 м/с5 %
    06:00Ясно и безоблачно+17°C53 %752 мм2.3 м/с5 %
    09:00Ясно и безоблачно+17°C51 %753 мм1.9 м/с5 %
    12:00Ясно и безоблачно+22°C35 %752 мм1.1 м/с5 %
    15:00Ясно и безоблачно+28°C25 %751 мм1.7 м/с5 %
    18:00Ясно и безоблачно+31°C22 %751 мм1.0 м/с5 %
    21:00Ясно и безоблачно+27°C26 %752 мм3.0 м/с5 %
  • 25февраля
    Воскресенье
    +15°
    +32°
    Ясно и безоблачно
    ВремяПогодаТемператураВлажностьДавлениеВетер, м/сВероятность осадков
    00:00Ясно и безоблачно+23°C32 %752 мм2.7 м/с5 %
    03:00Ясно и безоблачно+20°C36 %751 мм2.5 м/с5 %
    06:00Ясно и безоблачно+18°C48 %751 мм2.3 м/с5 %
    09:00Ясно и безоблачно+18°C50 %752 мм2.5 м/с5 %
    12:00Ясно и безоблачно+24°C31 %753 мм3.3 м/с5 %
    15:00Ясно и безоблачно+30°C15 %752 мм3.6 м/с5 %
    18:00Ясно и безоблачно+31°C11 %751 мм3.7 м/с5 %
    21:00Ясно и безоблачно+27°C23 %752 мм4.0 м/с5 %
  • 26февраля
    Понедельник
    +16°
    +31°
    Ясно и безоблачно
    ВремяПогодаТемператураВлажностьДавлениеВетер, м/сВероятность осадков
    00:00Ясно и безоблачно+21°C31 %752 мм2.8 м/с5 %
    03:00Ясно и безоблачно+19°C41 %752 мм3.3 м/с5 %
    06:00Практически безоблачно+18°C48 %752 мм2.6 м/с5 %
    09:00Практически безоблачно+17°C44 %754 мм2.7 м/с5 %
    12:00Ясно и безоблачно+23°C30 %754 мм3.2 м/с5 %
    15:00Ясно и безоблачно+28°C18 %753 мм3.1 м/с5 %
    18:00Практически безоблачно+30°C15 %752 мм3.4 м/с5 %
    21:00Небольшая облачность+26°C29 %752 мм4.4 м/с5 %
  • 27февраля
    Вторник
    +18°
    +32°
    Ясно и безоблачно
    ВремяПогодаТемператураВлажностьДавлениеВетер, м/сВероятность осадков
    00:00Ясно и безоблачно+20°C45 %753 мм3.5 м/с5 %
    03:00Ясно и безоблачно+18°C58 %752 мм2.7 м/с5 %
    06:00Ясно и безоблачно+17°C68 %752 мм2.5 м/с5 %
    09:00Ясно и безоблачно+17°C65 %752 мм2.7 м/с5 %
    12:00Ясно и безоблачно+23°C37 %752 мм3.8 м/с5 %
    15:00Ясно и безоблачно+29°C18 %751 мм4.3 м/с5 %
    18:00Ясно и безоблачно+31°C15 %750 мм4.5 м/с5 %
    21:00Ясно и безоблачно+27°C30 %751 мм5.1 м/с5 %
Мы используем cookies
Соглашаюсь